sensor_id;sensor_type;location;lat;lon;timestamp;temperature;humidity
24800;DHT22;12897;50.812;4.430;2024-03-06T00:02:13;8.50;99.90
24800;DHT22;12897;50.812;4.430;2024-03-06T00:04:44;8.50;99.90
24800;DHT22;12897;50.812;4.430;2024-03-06T00:07:16;8.40;99.90
24800;DHT22;12897;50.812;4.430;2024-03-06T00:09:42;8.40;99.90
24800;DHT22;12897;50.812;4.430;2024-03-06T00:12:11;8.40;99.90
24800;DHT22;12897;50.812;4.430;2024-03-06T00:14:43;8.40;99.90
24800;DHT22;12897;50.812;4.430;2024-03-06T00:17:22;8.40;99.90
24800;DHT22;12897;50.812;4.430;2024-03-06T00:20:05;8.40;99.90
24800;DHT22;12897;50.812;4.430;2024-03-06T00:22:40;8.30;99.90
24800;DHT22;12897;50.812;4.430;2024-03-06T00:25:15;8.20;99.90
24800;DHT22;12897;50.812;4.430;2024-03-06T00:27:47;8.20;99.90
24800;DHT22;12897;50.812;4.430;2024-03-06T00:30:24;8.20;99.90
24800;DHT22;12897;50.812;4.430;2024-03-06T00:32:54;8.10;99.90
24800;DHT22;12897;50.812;4.430;2024-03-06T00:35:36;8.00;99.90
24800;DHT22;12897;50.812;4.430;2024-03-06T00:38:10;8.00;99.90
24800;DHT22;12897;50.812;4.430;2024-03-06T00:40:37;8.00;99.90
24800;DHT22;12897;50.812;4.430;2024-03-06T00:43:13;8.00;99.90
24800;DHT22;12897;50.812;4.430;2024-03-06T00:45:36;8.00;99.90
24800;DHT22;12897;50.812;4.430;2024-03-06T00:51:07;8.00;99.90
24800;DHT22;12897;50.812;4.430;2024-03-06T00:53:31;7.90;99.90
24800;DHT22;12897;50.812;4.430;2024-03-06T00:55:58;7.80;99.90
24800;DHT22;12897;50.812;4.430;2024-03-06T00:58:33;7.70;99.90
24800;DHT22;12897;50.812;4.430;2024-03-06T01:01:01;7.70;99.90
24800;DHT22;12897;50.812;4.430;2024-03-06T01:03:41;7.70;99.90
24800;DHT22;12897;50.812;4.430;2024-03-06T01:06:10;7.60;99.90
24800;DHT22;12897;50.812;4.430;2024-03-06T01:08:46;7.60;99.90
24800;DHT22;12897;50.812;4.430;2024-03-06T01:11:15;7.70;99.90
24800;DHT22;12897;50.812;4.430;2024-03-06T01:13:54;7.60;99.90
24800;DHT22;12897;50.812;4.430;2024-03-06T01:16:21;7.60;99.90
24800;DHT22;12897;50.812;4.430;2024-03-06T01:18:49;7.40;99.90
24800;DHT22;12897;50.812;4.430;2024-03-06T01:21:17;7.20;99.90
24800;DHT22;12897;50.812;4.430;2024-03-06T01:23:47;7.10;99.90
24800;DHT22;12897;50.812;4.430;2024-03-06T01:26:20;7.00;99.90
24800;DHT22;12897;50.812;4.430;2024-03-06T01:29:06;6.90;99.90
24800;DHT22;12897;50.812;4.430;2024-03-06T01:31:34;6.90;99.90
24800;DHT22;12897;50.812;4.430;2024-03-06T01:34:04;6.90;99.90
24800;DHT22;12897;50.812;4.430;2024-03-06T01:36:32;6.70;99.90
24800;DHT22;12897;50.812;4.430;2024-03-06T01:39:04;6.60;99.90
24800;DHT22;12897;50.812;4.430;2024-03-06T01:41:36;6.80;99.90
24800;DHT22;12897;50.812;4.430;2024-03-06T01:44:04;6.90;99.90
24800;DHT22;12897;50.812;4.430;2024-03-06T01:46:41;6.70;99.90
24800;DHT22;12897;50.812;4.430;2024-03-06T01:49:03;6.50;99.90
24800;DHT22;12897;50.812;4.430;2024-03-06T01:51:33;6.40;99.90
24800;DHT22;12897;50.812;4.430;2024-03-06T01:54:03;6.50;99.90
24800;DHT22;12897;50.812;4.430;2024-03-06T01:56:45;6.60;99.90
24800;DHT22;12897;50.812;4.430;2024-03-06T01:59:19;6.50;99.90
24800;DHT22;12897;50.812;4.430;2024-03-06T02:01:56;6.50;99.90
24800;DHT22;12897;50.812;4.430;2024-03-06T02:04:24;6.60;99.90
24800;DHT22;12897;50.812;4.430;2024-03-06T02:06:54;6.70;99.90
24800;DHT22;12897;50.812;4.430;2024-03-06T02:09:25;6.60;99.90
24800;DHT22;12897;50.812;4.430;2024-03-06T02:12:05;6.60;99.90
24800;DHT22;12897;50.812;4.430;2024-03-06T02:14:35;6.50;99.90
24800;DHT22;12897;50.812;4.430;2024-03-06T02:17:09;6.50;99.90
24800;DHT22;12897;50.812;4.430;2024-03-06T02:19:40;6.50;99.90
24800;DHT22;12897;50.812;4.430;2024-03-06T02:22:15;6.40;99.90
24800;DHT22;12897;50.812;4.430;2024-03-06T02:24:52;6.30;99.90
24800;DHT22;12897;50.812;4.430;2024-03-06T02:27:20;6.20;99.90
24800;DHT22;12897;50.812;4.430;2024-03-06T02:29:49;6.20;99.90
24800;DHT22;12897;50.812;4.430;2024-03-06T02:32:18;6.10;99.90
24800;DHT22;12897;50.812;4.430;2024-03-06T02:34:46;6.00;99.90
24800;DHT22;12897;50.812;4.430;2024-03-06T02:37:16;6.00;99.90
24800;DHT22;12897;50.812;4.430;2024-03-06T02:39:44;6.20;99.90
24800;DHT22;12897;50.812;4.430;2024-03-06T02:42:15;6.30;99.90
24800;DHT22;12897;50.812;4.430;2024-03-06T02:44:43;6.30;99.90
24800;DHT22;12897;50.812;4.430;2024-03-06T02:47:14;6.20;99.90
24800;DHT22;12897;50.812;4.430;2024-03-06T02:49:40;6.10;99.90
24800;DHT22;12897;50.812;4.430;2024-03-06T02:52:11;6.00;99.90
24800;DHT22;12897;50.812;4.430;2024-03-06T02:54:41;6.00;99.90
24800;DHT22;12897;50.812;4.430;2024-03-06T02:57:16;5.90;99.90
24800;DHT22;12897;50.812;4.430;2024-03-06T02:59:50;5.90;99.90
24800;DHT22;12897;50.812;4.430;2024-03-06T03:02:21;5.80;99.90
24800;DHT22;12897;50.812;4.430;2024-03-06T03:04:46;5.80;99.90
24800;DHT22;12897;50.812;4.430;2024-03-06T03:07:21;5.50;99.90
24800;DHT22;12897;50.812;4.430;2024-03-06T03:09:47;5.40;99.90
24800;DHT22;12897;50.812;4.430;2024-03-06T03:12:15;5.50;99.90
24800;DHT22;12897;50.812;4.430;2024-03-06T03:14:45;5.60;99.90
24800;DHT22;12897;50.812;4.430;2024-03-06T03:17:13;5.70;99.90
24800;DHT22;12897;50.812;4.430;2024-03-06T03:19:45;5.70;99.90
24800;DHT22;12897;50.812;4.430;2024-03-06T03:22:11;5.60;99.90
24800;DHT22;12897;50.812;4.430;2024-03-06T03:24:42;5.50;99.90
24800;DHT22;12897;50.812;4.430;2024-03-06T03:27:09;5.40;99.90
24800;DHT22;12897;50.812;4.430;2024-03-06T03:29:41;5.50;99.90
24800;DHT22;12897;50.812;4.430;2024-03-06T03:32:10;5.60;99.90
24800;DHT22;12897;50.812;4.430;2024-03-06T03:34:42;5.60;99.90
24800;DHT22;12897;50.812;4.430;2024-03-06T03:37:19;5.50;99.90
24800;DHT22;12897;50.812;4.430;2024-03-06T03:39:43;5.40;99.90
24800;DHT22;12897;50.812;4.430;2024-03-06T03:42:11;5.30;99.90
24800;DHT22;12897;50.812;4.430;2024-03-06T03:44:42;5.30;99.90
24800;DHT22;12897;50.812;4.430;2024-03-06T03:47:14;5.30;99.90
24800;DHT22;12897;50.812;4.430;2024-03-06T03:49:45;5.30;99.90
24800;DHT22;12897;50.812;4.430;2024-03-06T03:52:11;5.30;99.90
24800;DHT22;12897;50.812;4.430;2024-03-06T03:54:40;5.20;99.90
24800;DHT22;12897;50.812;4.430;2024-03-06T03:57:11;5.20;99.90
24800;DHT22;12897;50.812;4.430;2024-03-06T03:59:40;5.20;99.90
24800;DHT22;12897;50.812;4.430;2024-03-06T04:02:08;5.20;99.90
24800;DHT22;12897;50.812;4.430;2024-03-06T04:04:42;5.20;99.90
24800;DHT22;12897;50.812;4.430;2024-03-06T04:07:09;5.20;99.90
24800;DHT22;12897;50.812;4.430;2024-03-06T04:09:42;5.20;99.90
24800;DHT22;12897;50.812;4.430;2024-03-06T04:12:18;5.30;99.90
24800;DHT22;12897;50.812;4.430;2024-03-06T04:14:44;5.20;99.90
24800;DHT22;12897;50.812;4.430;2024-03-06T04:17:16;5.10;99.90
24800;DHT22;12897;50.812;4.430;2024-03-06T04:19:44;5.10;99.90
24800;DHT22;12897;50.812;4.430;2024-03-06T04:22:14;5.10;99.90
24800;DHT22;12897;50.812;4.430;2024-03-06T04:24:44;5.10;99.90
24800;DHT22;12897;50.812;4.430;2024-03-06T04:27:15;5.20;99.90
24800;DHT22;12897;50.812;4.430;2024-03-06T04:29:55;5.20;99.90
24800;DHT22;12897;50.812;4.430;2024-03-06T04:32:25;5.20;99.90
24800;DHT22;12897;50.812;4.430;2024-03-06T04:34:52;5.20;99.90
24800;DHT22;12897;50.812;4.430;2024-03-06T04:37:29;5.10;99.90
24800;DHT22;12897;50.812;4.430;2024-03-06T04:39:55;5.10;99.90
24800;DHT22;12897;50.812;4.430;2024-03-06T04:42:23;5.20;99.90
24800;DHT22;12897;50.812;4.430;2024-03-06T04:45:08;5.20;99.90
24800;DHT22;12897;50.812;4.430;2024-03-06T04:47:28;5.10;99.90
24800;DHT22;12897;50.812;4.430;2024-03-06T04:49:59;5.00;99.90
24800;DHT22;12897;50.812;4.430;2024-03-06T04:52:28;5.10;99.90
24800;DHT22;12897;50.812;4.430;2024-03-06T04:54:58;5.10;99.90
24800;DHT22;12897;50.812;4.430;2024-03-06T04:57:26;5.10;99.90
24800;DHT22;12897;50.812;4.430;2024-03-06T04:59:54;5.00;99.90
24800;DHT22;12897;50.812;4.430;2024-03-06T05:02:25;4.90;99.90
24800;DHT22;12897;50.812;4.430;2024-03-06T05:04:55;4.90;99.90
24800;DHT22;12897;50.812;4.430;2024-03-06T05:07:23;4.90;99.90
24800;DHT22;12897;50.812;4.430;2024-03-06T05:09:52;4.90;99.90
24800;DHT22;12897;50.812;4.430;2024-03-06T05:12:22;4.90;99.90
24800;DHT22;12897;50.812;4.430;2024-03-06T05:14:53;4.90;99.90
24800;DHT22;12897;50.812;4.430;2024-03-06T05:17:26;4.80;99.90
24800;DHT22;12897;50.812;4.430;2024-03-06T05:19:57;4.80;99.90
24800;DHT22;12897;50.812;4.430;2024-03-06T05:22:23;4.60;99.90
24800;DHT22;12897;50.812;4.430;2024-03-06T05:24:56;4.70;99.90
24800;DHT22;12897;50.812;4.430;2024-03-06T05:27:25;4.80;99.90
24800;DHT22;12897;50.812;4.430;2024-03-06T05:29:56;4.80;99.90
24800;DHT22;12897;50.812;4.430;2024-03-06T05:32:27;4.80;99.90
24800;DHT22;12897;50.812;4.430;2024-03-06T05:34:56;4.80;99.90
24800;DHT22;12897;50.812;4.430;2024-03-06T05:37:25;4.90;99.90
24800;DHT22;12897;50.812;4.430;2024-03-06T05:39:56;4.90;99.90
24800;DHT22;12897;50.812;4.430;2024-03-06T05:42:24;4.90;99.90
24800;DHT22;12897;50.812;4.430;2024-03-06T05:44:51;4.90;99.90
24800;DHT22;12897;50.812;4.430;2024-03-06T05:47:28;4.80;99.90
24800;DHT22;12897;50.812;4.430;2024-03-06T05:49:57;5.00;99.90
24800;DHT22;12897;50.812;4.430;2024-03-06T05:52:26;4.90;99.90
24800;DHT22;12897;50.812;4.430;2024-03-06T05:54:57;4.90;99.90
24800;DHT22;12897;50.812;4.430;2024-03-06T05:57:28;4.90;99.90
24800;DHT22;12897;50.812;4.430;2024-03-06T05:59:59;4.80;99.90
24800;DHT22;12897;50.812;4.430;2024-03-06T06:02:31;4.80;99.90
24800;DHT22;12897;50.812;4.430;2024-03-06T06:05:03;4.90;99.90
24800;DHT22;12897;50.812;4.430;2024-03-06T06:07:39;4.80;99.90
24800;DHT22;12897;50.812;4.430;2024-03-06T06:10:11;4.90;99.90
24800;DHT22;12897;50.812;4.430;2024-03-06T06:12:41;4.90;99.90
24800;DHT22;12897;50.812;4.430;2024-03-06T06:15:09;4.80;99.90
24800;DHT22;12897;50.812;4.430;2024-03-06T06:17:38;4.70;99.90
24800;DHT22;12897;50.812;4.430;2024-03-06T06:20:08;4.70;99.90
24800;DHT22;12897;50.812;4.430;2024-03-06T06:22:41;4.80;99.90
24800;DHT22;12897;50.812;4.430;2024-03-06T06:25:20;4.90;99.90
24800;DHT22;12897;50.812;4.430;2024-03-06T06:27:42;4.80;99.90
24800;DHT22;12897;50.812;4.430;2024-03-06T06:30:13;4.80;99.90
24800;DHT22;12897;50.812;4.430;2024-03-06T06:32:41;4.80;99.90
24800;DHT22;12897;50.812;4.430;2024-03-06T06:35:11;4.70;99.90
24800;DHT22;12897;50.812;4.430;2024-03-06T06:37:44;4.80;99.90
24800;DHT22;12897;50.812;4.430;2024-03-06T06:42:47;4.80;99.90
24800;DHT22;12897;50.812;4.430;2024-03-06T06:45:18;4.80;99.90
24800;DHT22;12897;50.812;4.430;2024-03-06T06:47:50;4.90;99.90
24800;DHT22;12897;50.812;4.430;2024-03-06T06:50:21;4.80;99.90
24800;DHT22;12897;50.812;4.430;2024-03-06T06:52:55;4.80;99.90
24800;DHT22;12897;50.812;4.430;2024-03-06T06:55:27;4.80;99.90
24800;DHT22;12897;50.812;4.430;2024-03-06T06:57:56;4.90;99.90
24800;DHT22;12897;50.812;4.430;2024-03-06T07:00:24;4.90;99.90
24800;DHT22;12897;50.812;4.430;2024-03-06T07:02:57;5.10;99.90
24800;DHT22;12897;50.812;4.430;2024-03-06T07:05:24;5.20;99.90
24800;DHT22;12897;50.812;4.430;2024-03-06T07:07:56;5.20;99.90
24800;DHT22;12897;50.812;4.430;2024-03-06T07:10:25;5.30;99.90
24800;DHT22;12897;50.812;4.430;2024-03-06T07:12:56;5.40;99.90
24800;DHT22;12897;50.812;4.430;2024-03-06T07:15:26;5.50;99.90
24800;DHT22;12897;50.812;4.430;2024-03-06T07:17:56;5.40;99.90
24800;DHT22;12897;50.812;4.430;2024-03-06T07:20:23;5.50;99.90
24800;DHT22;12897;50.812;4.430;2024-03-06T07:22:51;5.50;99.90
24800;DHT22;12897;50.812;4.430;2024-03-06T07:25:19;5.40;99.90
24800;DHT22;12897;50.812;4.430;2024-03-06T07:27:47;5.30;99.90
24800;DHT22;12897;50.812;4.430;2024-03-06T07:30:25;5.30;99.90
24800;DHT22;12897;50.812;4.430;2024-03-06T07:33:03;5.40;99.90
24800;DHT22;12897;50.812;4.430;2024-03-06T07:35:41;5.50;99.90
24800;DHT22;12897;50.812;4.430;2024-03-06T07:38:08;5.50;99.90
24800;DHT22;12897;50.812;4.430;2024-03-06T07:40:38;5.70;99.90
24800;DHT22;12897;50.812;4.430;2024-03-06T07:43:13;5.80;99.90
24800;DHT22;12897;50.812;4.430;2024-03-06T07:45:44;5.80;99.90
24800;DHT22;12897;50.812;4.430;2024-03-06T07:48:11;5.70;99.90
24800;DHT22;12897;50.812;4.430;2024-03-06T07:50:44;6.00;99.90
24800;DHT22;12897;50.812;4.430;2024-03-06T07:53:11;6.00;99.90
24800;DHT22;12897;50.812;4.430;2024-03-06T07:55:46;6.20;99.90
24800;DHT22;12897;50.812;4.430;2024-03-06T07:58:13;6.40;99.90
24800;DHT22;12897;50.812;4.430;2024-03-06T08:00:45;6.40;99.90
24800;DHT22;12897;50.812;4.430;2024-03-06T08:03:16;6.50;99.90
24800;DHT22;12897;50.812;4.430;2024-03-06T08:05:47;6.60;99.90
24800;DHT22;12897;50.812;4.430;2024-03-06T08:08:16;6.70;99.90
24800;DHT22;12897;50.812;4.430;2024-03-06T08:10:47;6.80;99.90
24800;DHT22;12897;50.812;4.430;2024-03-06T08:13:21;6.90;99.90
24800;DHT22;12897;50.812;4.430;2024-03-06T08:15:56;7.00;99.90
24800;DHT22;12897;50.812;4.430;2024-03-06T08:18:33;7.20;99.90
24800;DHT22;12897;50.812;4.430;2024-03-06T08:21:09;7.40;99.90
24800;DHT22;12897;50.812;4.430;2024-03-06T08:23:45;7.60;99.90
24800;DHT22;12897;50.812;4.430;2024-03-06T08:26:09;7.90;99.90
24800;DHT22;12897;50.812;4.430;2024-03-06T08:28:46;8.00;99.90
24800;DHT22;12897;50.812;4.430;2024-03-06T08:31:10;8.20;99.90
24800;DHT22;12897;50.812;4.430;2024-03-06T08:33:39;8.30;99.90
24800;DHT22;12897;50.812;4.430;2024-03-06T08:36:27;8.50;99.90
24800;DHT22;12897;50.812;4.430;2024-03-06T08:38:45;8.60;99.90
24800;DHT22;12897;50.812;4.430;2024-03-06T08:41:17;8.70;99.90
24800;DHT22;12897;50.812;4.430;2024-03-06T08:43:46;8.70;99.90
24800;DHT22;12897;50.812;4.430;2024-03-06T08:46:18;8.50;99.90
24800;DHT22;12897;50.812;4.430;2024-03-06T08:48:47;8.50;99.90
24800;DHT22;12897;50.812;4.430;2024-03-06T08:51:22;8.50;99.90
24800;DHT22;12897;50.812;4.430;2024-03-06T08:53:55;8.50;99.90
24800;DHT22;12897;50.812;4.430;2024-03-06T08:56:30;8.40;99.90
24800;DHT22;12897;50.812;4.430;2024-03-06T08:59:00;8.40;99.90
24800;DHT22;12897;50.812;4.430;2024-03-06T09:01:39;8.40;99.90
24800;DHT22;12897;50.812;4.430;2024-03-06T09:04:24;8.50;99.90
24800;DHT22;12897;50.812;4.430;2024-03-06T09:06:40;8.50;99.90
24800;DHT22;12897;50.812;4.430;2024-03-06T09:09:18;8.40;99.90
24800;DHT22;12897;50.812;4.430;2024-03-06T09:11:46;8.40;99.90
24800;DHT22;12897;50.812;4.430;2024-03-06T09:14:18;8.50;99.90
24800;DHT22;12897;50.812;4.430;2024-03-06T09:16:54;8.60;99.90
24800;DHT22;12897;50.812;4.430;2024-03-06T09:19:27;8.60;99.90
24800;DHT22;12897;50.812;4.430;2024-03-06T09:21:53;8.80;99.90
24800;DHT22;12897;50.812;4.430;2024-03-06T09:24:28;9.00;99.90
24800;DHT22;12897;50.812;4.430;2024-03-06T09:29:40;9.30;99.90
24800;DHT22;12897;50.812;4.430;2024-03-06T09:32:09;9.30;99.90
24800;DHT22;12897;50.812;4.430;2024-03-06T09:34:41;9.00;99.90
24800;DHT22;12897;50.812;4.430;2024-03-06T09:37:13;8.90;99.90
24800;DHT22;12897;50.812;4.430;2024-03-06T09:39:45;8.90;99.90
24800;DHT22;12897;50.812;4.430;2024-03-06T09:42:17;9.00;99.90
24800;DHT22;12897;50.812;4.430;2024-03-06T09:44:48;9.10;99.90
24800;DHT22;12897;50.812;4.430;2024-03-06T09:47:23;9.50;99.90
24800;DHT22;12897;50.812;4.430;2024-03-06T09:49:53;9.70;99.90
24800;DHT22;12897;50.812;4.430;2024-03-06T09:52:37;9.80;99.90
24800;DHT22;12897;50.812;4.430;2024-03-06T09:55:07;9.70;99.90
24800;DHT22;12897;50.812;4.430;2024-03-06T09:57:46;9.50;99.90
24800;DHT22;12897;50.812;4.430;2024-03-06T10:00:14;9.50;99.90
24800;DHT22;12897;50.812;4.430;2024-03-06T10:02:59;9.60;99.90
24800;DHT22;12897;50.812;4.430;2024-03-06T10:05:22;9.70;99.90
24800;DHT22;12897;50.812;4.430;2024-03-06T10:07:54;9.80;99.90
24800;DHT22;12897;50.812;4.430;2024-03-06T10:10:23;10.00;99.90
24800;DHT22;12897;50.812;4.430;2024-03-06T10:12:52;10.00;99.90
24800;DHT22;12897;50.812;4.430;2024-03-06T10:15:19;10.20;99.90
24800;DHT22;12897;50.812;4.430;2024-03-06T10:17:48;10.10;99.90
24800;DHT22;12897;50.812;4.430;2024-03-06T10:20:23;9.90;99.90
24800;DHT22;12897;50.812;4.430;2024-03-06T10:22:53;9.80;99.90
24800;DHT22;12897;50.812;4.430;2024-03-06T10:25:28;9.80;99.90
24800;DHT22;12897;50.812;4.430;2024-03-06T10:28:11;9.80;99.90
24800;DHT22;12897;50.812;4.430;2024-03-06T10:30:42;9.70;99.90
24800;DHT22;12897;50.812;4.430;2024-03-06T10:33:17;9.70;99.90
24800;DHT22;12897;50.812;4.430;2024-03-06T10:35:51;9.80;99.90
24800;DHT22;12897;50.812;4.430;2024-03-06T10:38:25;10.00;99.90
24800;DHT22;12897;50.812;4.430;2024-03-06T10:40:51;10.10;99.90
24800;DHT22;12897;50.812;4.430;2024-03-06T10:43:24;10.30;99.90
24800;DHT22;12897;50.812;4.430;2024-03-06T10:46:19;10.60;99.90
24800;DHT22;12897;50.812;4.430;2024-03-06T10:48:30;10.80;99.90
24800;DHT22;12897;50.812;4.430;2024-03-06T10:51:02;11.00;99.90
24800;DHT22;12897;50.812;4.430;2024-03-06T10:53:28;11.20;99.90
24800;DHT22;12897;50.812;4.430;2024-03-06T10:56:01;11.30;99.90
24800;DHT22;12897;50.812;4.430;2024-03-06T11:01:03;11.40;99.90
24800;DHT22;12897;50.812;4.430;2024-03-06T11:03:33;11.60;99.90
24800;DHT22;12897;50.812;4.430;2024-03-06T11:06:02;11.70;99.90
24800;DHT22;12897;50.812;4.430;2024-03-06T11:08:30;11.90;99.90
24800;DHT22;12897;50.812;4.430;2024-03-06T11:11:20;11.90;99.90
24800;DHT22;12897;50.812;4.430;2024-03-06T11:13:55;11.90;99.90
24800;DHT22;12897;50.812;4.430;2024-03-06T11:16:30;11.70;99.90
24800;DHT22;12897;50.812;4.430;2024-03-06T11:19:07;11.70;99.90
24800;DHT22;12897;50.812;4.430;2024-03-06T11:21:44;11.80;99.90
24800;DHT22;12897;50.812;4.430;2024-03-06T11:24:18;11.80;99.90
24800;DHT22;12897;50.812;4.430;2024-03-06T11:26:57;11.70;99.90
24800;DHT22;12897;50.812;4.430;2024-03-06T11:30:02;11.90;99.90
24800;DHT22;12897;50.812;4.430;2024-03-06T11:32:08;12.00;99.90
24800;DHT22;12897;50.812;4.430;2024-03-06T11:34:37;12.10;99.90
24800;DHT22;12897;50.812;4.430;2024-03-06T11:37:06;12.30;99.90
24800;DHT22;12897;50.812;4.430;2024-03-06T11:39:36;12.30;99.90
24800;DHT22;12897;50.812;4.430;2024-03-06T11:42:05;12.30;99.90
24800;DHT22;12897;50.812;4.430;2024-03-06T11:44:35;12.60;99.90
24800;DHT22;12897;50.812;4.430;2024-03-06T11:47:07;12.50;99.90
24800;DHT22;12897;50.812;4.430;2024-03-06T11:49:36;12.60;99.90
24800;DHT22;12897;50.812;4.430;2024-03-06T11:52:06;12.50;99.90
24800;DHT22;12897;50.812;4.430;2024-03-06T11:54:36;12.60;99.90
24800;DHT22;12897;50.812;4.430;2024-03-06T11:57:05;12.70;99.90
24800;DHT22;12897;50.812;4.430;2024-03-06T11:59:35;12.30;99.90
24800;DHT22;12897;50.812;4.430;2024-03-06T12:02:05;12.20;99.90
24800;DHT22;12897;50.812;4.430;2024-03-06T12:04:34;12.30;99.90
24800;DHT22;12897;50.812;4.430;2024-03-06T12:07:04;12.40;99.90
24800;DHT22;12897;50.812;4.430;2024-03-06T12:09:36;12.50;99.90
24800;DHT22;12897;50.812;4.430;2024-03-06T12:12:04;12.60;99.90
24800;DHT22;12897;50.812;4.430;2024-03-06T12:14:35;12.80;99.90
24800;DHT22;12897;50.812;4.430;2024-03-06T12:17:02;12.90;99.90
24800;DHT22;12897;50.812;4.430;2024-03-06T12:19:38;12.90;99.90
24800;DHT22;12897;50.812;4.430;2024-03-06T12:22:04;13.10;99.90
24800;DHT22;12897;50.812;4.430;2024-03-06T12:24:32;12.70;99.90
24800;DHT22;12897;50.812;4.430;2024-03-06T12:27:04;12.60;99.90
24800;DHT22;12897;50.812;4.430;2024-03-06T12:29:34;12.20;99.90
24800;DHT22;12897;50.812;4.430;2024-03-06T12:32:02;12.20;99.90
24800;DHT22;12897;50.812;4.430;2024-03-06T12:34:30;12.40;99.90
24800;DHT22;12897;50.812;4.430;2024-03-06T12:37:08;12.40;99.90
24800;DHT22;12897;50.812;4.430;2024-03-06T12:39:37;12.60;99.90
24800;DHT22;12897;50.812;4.430;2024-03-06T12:42:05;12.90;99.90
24800;DHT22;12897;50.812;4.430;2024-03-06T12:44:33;12.80;99.90
24800;DHT22;12897;50.812;4.430;2024-03-06T12:47:00;12.80;99.90
24800;DHT22;12897;50.812;4.430;2024-03-06T12:49:28;12.50;99.90
24800;DHT22;12897;50.812;4.430;2024-03-06T12:51:55;12.60;99.90
24800;DHT22;12897;50.812;4.430;2024-03-06T12:54:23;12.60;99.90
24800;DHT22;12897;50.812;4.430;2024-03-06T12:56:50;12.70;99.90
24800;DHT22;12897;50.812;4.430;2024-03-06T12:59:18;12.80;99.90
24800;DHT22;12897;50.812;4.430;2024-03-06T13:01:46;12.90;99.90
24800;DHT22;12897;50.812;4.430;2024-03-06T13:04:14;13.00;99.90
24800;DHT22;12897;50.812;4.430;2024-03-06T13:06:41;13.00;99.90
24800;DHT22;12897;50.812;4.430;2024-03-06T13:09:09;12.80;99.90
24800;DHT22;12897;50.812;4.430;2024-03-06T13:11:36;12.50;99.90
24800;DHT22;12897;50.812;4.430;2024-03-06T13:14:04;12.60;99.90
24800;DHT22;12897;50.812;4.430;2024-03-06T13:16:31;12.70;99.90
24800;DHT22;12897;50.812;4.430;2024-03-06T13:18:59;12.80;99.90
24800;DHT22;12897;50.812;4.430;2024-03-06T13:21:28;13.10;99.90
24800;DHT22;12897;50.812;4.430;2024-03-06T13:23:56;13.20;99.90
24800;DHT22;12897;50.812;4.430;2024-03-06T13:26:23;13.10;99.90
24800;DHT22;12897;50.812;4.430;2024-03-06T13:28:51;13.10;99.90
24800;DHT22;12897;50.812;4.430;2024-03-06T13:31:18;13.10;99.90
24800;DHT22;12897;50.812;4.430;2024-03-06T13:33:46;13.00;99.90
24800;DHT22;12897;50.812;4.430;2024-03-06T13:36:15;13.10;99.90
24800;DHT22;12897;50.812;4.430;2024-03-06T13:38:43;13.20;99.90
24800;DHT22;12897;50.812;4.430;2024-03-06T13:41:11;13.20;99.90
24800;DHT22;12897;50.812;4.430;2024-03-06T13:43:39;13.20;99.90
24800;DHT22;12897;50.812;4.430;2024-03-06T13:46:06;13.20;99.90
24800;DHT22;12897;50.812;4.430;2024-03-06T13:48:34;13.20;99.90
24800;DHT22;12897;50.812;4.430;2024-03-06T13:51:02;13.10;99.90
24800;DHT22;12897;50.812;4.430;2024-03-06T13:53:31;13.10;99.90
24800;DHT22;12897;50.812;4.430;2024-03-06T13:55:58;13.20;99.90
24800;DHT22;12897;50.812;4.430;2024-03-06T13:58:26;13.20;99.90
24800;DHT22;12897;50.812;4.430;2024-03-06T14:00:53;13.20;99.90
24800;DHT22;12897;50.812;4.430;2024-03-06T14:03:21;12.90;99.90
24800;DHT22;12897;50.812;4.430;2024-03-06T14:05:48;12.70;99.90
24800;DHT22;12897;50.812;4.430;2024-03-06T14:08:16;12.70;99.90
24800;DHT22;12897;50.812;4.430;2024-03-06T14:10:44;12.70;99.90
24800;DHT22;12897;50.812;4.430;2024-03-06T14:13:12;12.60;99.90
24800;DHT22;12897;50.812;4.430;2024-03-06T14:15:39;12.60;99.90
24800;DHT22;12897;50.812;4.430;2024-03-06T14:18:07;12.80;99.90
24800;DHT22;12897;50.812;4.430;2024-03-06T14:20:35;12.90;99.90
24800;DHT22;12897;50.812;4.430;2024-03-06T14:23:04;13.00;99.90
24800;DHT22;12897;50.812;4.430;2024-03-06T14:25:32;12.90;99.90
24800;DHT22;12897;50.812;4.430;2024-03-06T14:28:04;13.00;99.90
24800;DHT22;12897;50.812;4.430;2024-03-06T14:30:33;13.00;99.90
24800;DHT22;12897;50.812;4.430;2024-03-06T14:33:00;13.00;99.90
24800;DHT22;12897;50.812;4.430;2024-03-06T14:35:28;13.10;99.90
24800;DHT22;12897;50.812;4.430;2024-03-06T14:37:55;13.10;99.90
24800;DHT22;12897;50.812;4.430;2024-03-06T14:40:23;13.30;99.90
24800;DHT22;12897;50.812;4.430;2024-03-06T14:42:50;13.30;99.90
24800;DHT22;12897;50.812;4.430;2024-03-06T14:45:18;13.00;99.90
24800;DHT22;12897;50.812;4.430;2024-03-06T14:47:45;12.80;99.90
24800;DHT22;12897;50.812;4.430;2024-03-06T14:50:13;12.60;99.90
24800;DHT22;12897;50.812;4.430;2024-03-06T14:52:40;12.50;99.90
24800;DHT22;12897;50.812;4.430;2024-03-06T14:55:08;12.60;99.90
24800;DHT22;12897;50.812;4.430;2024-03-06T14:57:36;12.90;99.90
24800;DHT22;12897;50.812;4.430;2024-03-06T15:00:03;12.90;99.90
24800;DHT22;12897;50.812;4.430;2024-03-06T15:02:33;13.00;99.90
24800;DHT22;12897;50.812;4.430;2024-03-06T15:05:01;13.00;99.90
24800;DHT22;12897;50.812;4.430;2024-03-06T15:07:29;12.90;99.90
24800;DHT22;12897;50.812;4.430;2024-03-06T15:09:56;12.90;99.90
24800;DHT22;12897;50.812;4.430;2024-03-06T15:12:25;12.90;99.90
24800;DHT22;12897;50.812;4.430;2024-03-06T15:14:52;13.20;99.90
24800;DHT22;12897;50.812;4.430;2024-03-06T15:17:21;13.20;99.90
24800;DHT22;12897;50.812;4.430;2024-03-06T15:19:49;13.30;99.90
24800;DHT22;12897;50.812;4.430;2024-03-06T15:22:16;13.30;99.90
24800;DHT22;12897;50.812;4.430;2024-03-06T15:24:44;13.30;99.90
24800;DHT22;12897;50.812;4.430;2024-03-06T15:27:12;13.40;99.90
24800;DHT22;12897;50.812;4.430;2024-03-06T15:29:41;13.30;99.90
24800;DHT22;12897;50.812;4.430;2024-03-06T15:32:10;13.40;99.90
24800;DHT22;12897;50.812;4.430;2024-03-06T15:34:37;13.40;99.90
24800;DHT22;12897;50.812;4.430;2024-03-06T15:37:05;13.20;99.90
24800;DHT22;12897;50.812;4.430;2024-03-06T15:39:33;13.20;99.90
24800;DHT22;12897;50.812;4.430;2024-03-06T15:42:01;13.00;99.90
24800;DHT22;12897;50.812;4.430;2024-03-06T15:44:29;12.80;99.90
24800;DHT22;12897;50.812;4.430;2024-03-06T15:46:57;12.80;99.90
24800;DHT22;12897;50.812;4.430;2024-03-06T15:49:24;13.00;99.90
24800;DHT22;12897;50.812;4.430;2024-03-06T15:51:53;13.10;99.90
24800;DHT22;12897;50.812;4.430;2024-03-06T15:54:22;13.10;99.90
24800;DHT22;12897;50.812;4.430;2024-03-06T15:56:49;13.10;99.90
24800;DHT22;12897;50.812;4.430;2024-03-06T15:59:17;13.00;99.90
24800;DHT22;12897;50.812;4.430;2024-03-06T16:01:44;13.10;99.90
24800;DHT22;12897;50.812;4.430;2024-03-06T16:04:12;12.90;99.90
24800;DHT22;12897;50.812;4.430;2024-03-06T16:06:39;12.80;99.90
24800;DHT22;12897;50.812;4.430;2024-03-06T16:09:07;12.60;99.90
24800;DHT22;12897;50.812;4.430;2024-03-06T16:11:36;12.60;99.90